Yass Linton Hostel, New South Wales

12:06 PM AEST on July 26, 2016 (GMT +1000)
Yass | | Change Station

Elev 1804 ft 34.82 °S, 148.92 °E | Updated 42 seconds ago

Scattered Clouds
Scattered Clouds
47.7 °F
Feels Like 46 °F
N
4.5
Wind Variable Wind from North
Gusts 6.9 mph

Today
High -- | Low -- °F
--% Chance of Precip.
Yesterday
High -- | Low -- °F
Precip. -- in
Pressure 29.95 in
Visibility 6.2 miles
Clouds Scattered Clouds 3500 ft
Windchill 46 °F
Dew Point 34 °F
Humidity 59%
Rainfall 0.09 in
Snow Depth Not available.
7:03 AM 5:18 PM
Waning Gibbous, 60% visible
METAR YSCB 260130Z 30014KT 9999 SCT035 08/00 Q1014 FM0130 MOD TURB BLW 5000FT FM0130 30020G30KT 9999 SCT030
Pressure 29.95 in
Visibility 6.2 miles
Clouds Scattered Clouds 3500 ft
Windchill 46 °F
Dew Point 34 °F
Humidity 59%
Rainfall 0.09 in
Snow Depth Not available.
7:03 AM 5:18 PM
Waning Gibbous, 60% visible
METAR YSCB 260130Z 30014KT 9999 SCT035 08/00 Q1014 FM0130 MOD TURB BLW 5000FT FM0130 30020G30KT 9999 SCT030

10-Day Weather Forecast

Almanac

Astronomy

Jul. 26, 2016 Rise Set
Actual Time
Civil Twilight
Nautical Twilight
Astronomical Twilight
Moon
Length of Visible Light
Length of Day
Tomorrow will be .
, % of the Moon is Illuminated

Today's Extremes

Country Highs Country Lows

Community

WunderPhotos

Upload Photos

1,927,497 photos uploaded!

WunderBlog® & News

Nearby

Air Quality

  Air Quality AQ Index Pollutant
Not available.

Snow Depth

Station Depth Elevation

Earthquake Activity

City Distance Mag. Time & Date
Minimum magnitude displayed is 2.5.

Coastal Water Temperatures

Place Temperature

Stations

Nearby Weather Stations

Station Location Temp. Windchill Dew Point Humidity Wind Precip. Elev Updated Type